createdAt,value
2019-04-19T00:00:10.213Z,54.7
2019-04-19T00:01:11.308Z,54.8
2019-04-19T00:02:12.248Z,54.7
2019-04-19T00:03:17.670Z,54.9
2019-04-19T00:04:16.190Z,54.9
2019-04-19T00:05:13.753Z,54.9
2019-04-19T00:06:21.409Z,54.8
2019-04-19T00:07:21.160Z,55.1
2019-04-19T00:08:34.684Z,55.2
2019-04-19T00:09:30.772Z,54.9
2019-04-19T00:10:31.721Z,55.0
2019-04-19T00:11:31.738Z,54.8
2019-04-19T00:12:34.954Z,54.8
2019-04-19T00:13:26.234Z,54.5
2019-04-19T00:14:27.596Z,55.0
2019-04-19T00:15:28.681Z,55.0
2019-04-19T00:16:29.798Z,55.2
2019-04-19T00:17:32.710Z,55.2
2019-04-19T00:18:32.676Z,55.3
2019-04-19T00:19:54.296Z,55.3
2019-04-19T00:20:59.931Z,55.3
2019-04-19T00:22:01.879Z,55.5
2019-04-19T00:22:52.399Z,55.6
2019-04-19T00:23:44.862Z,55.4
2019-04-19T00:24:41.952Z,55.8
2019-04-19T00:25:43.372Z,55.9
2019-04-19T00:26:44.838Z,56.0
2019-04-19T00:27:51.655Z,55.8
2019-04-19T00:28:53.712Z,55.3
2019-04-19T00:29:57.113Z,55.9
2019-04-19T00:31:00.421Z,56.4
2019-04-19T00:32:08.083Z,56.6
2019-04-19T00:33:05.475Z,56.7
2019-04-19T00:33:57.206Z,56.8
2019-04-19T00:34:56.694Z,56.9
2019-04-19T00:35:58.110Z,56.8
2019-04-19T00:36:59.380Z,56.7
2019-04-19T00:38:09.423Z,56.6
2019-04-19T00:39:18.983Z,55.7
2019-04-19T00:40:21.200Z,56.4
2019-04-19T00:41:24.313Z,57.1
2019-04-19T00:42:25.449Z,56.1
2019-04-19T00:43:27.425Z,56.7
2019-04-19T00:44:37.610Z,56.0
2019-04-19T00:45:26.241Z,55.9
2019-04-19T00:46:31.385Z,56.8
2019-04-19T00:47:35.454Z,56.6
2019-04-19T00:48:48.936Z,55.8
2019-04-19T00:49:27.895Z,56.3
2019-04-19T00:50:29.334Z,56.6
2019-04-19T00:51:36.715Z,56.5
2019-04-19T00:52:55.846Z,56.2
2019-04-19T00:53:31.645Z,56.6
2019-04-19T00:54:32.871Z,56.4
2019-04-19T00:55:42.632Z,56.9
2019-04-19T00:56:39.804Z,56.8
2019-04-19T00:57:38.226Z,57.7
2019-04-19T00:58:34.053Z,57.3
2019-04-19T00:59:38.566Z,58.2
2019-04-19T01:00:36.772Z,57.9
2019-04-19T01:01:35.711Z,58.5
2019-04-19T01:02:44.054Z,58.7
2019-04-19T01:03:43.591Z,58.6
2019-04-19T01:04:41.119Z,58.7
2019-04-19T01:05:47.196Z,59.1
2019-04-19T01:06:49.828Z,58.9
2019-04-19T01:07:45.363Z,58.8
2019-04-19T01:08:54.231Z,58.9
2019-04-19T01:10:04.912Z,59.5
2019-04-19T01:11:06.171Z,60.2
2019-04-19T01:12:03.300Z,60.1
2019-04-19T01:13:04.114Z,60.0
2019-04-19T01:14:10.863Z,60.7
2019-04-19T01:15:06.949Z,60.5
2019-04-19T01:16:05.899Z,60.7
2019-04-19T01:17:14.866Z,61.0
2019-04-19T01:18:12.667Z,60.4
2019-04-19T01:19:06.797Z,60.5
2019-04-19T01:20:03.952Z,60.6
2019-04-19T01:21:02.864Z,60.9
2019-04-19T01:22:11.663Z,61.7
2019-04-19T01:23:10.186Z,61.8
2019-04-19T01:24:07.814Z,61.8
2019-04-19T01:25:14.464Z,61.7
2019-04-19T01:26:12.055Z,62.2
2019-04-19T01:27:13.249Z,62.3
2019-04-19T01:28:17.864Z,62.8
2019-04-19T01:29:15.622Z,63.0
2019-04-19T01:30:23.095Z,62.4
2019-04-19T01:31:21.409Z,62.2
2019-04-19T01:32:22.627Z,62.5
2019-04-19T01:33:28.271Z,62.7
2019-04-19T01:34:26.271Z,62.9
2019-04-19T01:35:26.104Z,62.9
2019-04-19T01:36:32.465Z,63.3
2019-04-19T01:37:30.010Z,63.9
2019-04-19T01:38:33.589Z,63.4
2019-04-19T01:39:46.948Z,64.0
2019-04-19T01:40:53.554Z,63.8
2019-04-19T01:41:47.041Z,63.6
2019-04-19T01:42:50.309Z,63.9
2019-04-19T01:43:54.817Z,63.9
2019-04-19T01:44:54.715Z,64.1
2019-04-19T01:45:54.628Z,64.1
2019-04-19T01:46:56.264Z,64.5
2019-04-19T01:47:56.602Z,64.6
2019-04-19T01:48:57.207Z,64.5
2019-04-19T01:49:59.713Z,64.3
2019-04-19T01:51:03.297Z,64.5
2019-04-19T01:52:05.792Z,64.5
2019-04-19T01:53:09.717Z,64.4
2019-04-19T01:54:09.948Z,64.1
2019-04-19T01:55:02.766Z,64.2
2019-04-19T01:55:59.351Z,64.0
2019-04-19T01:56:58.381Z,64.3
2019-04-19T01:58:04.886Z,64.1
2019-04-19T01:59:00.729Z,63.8
2019-04-19T02:00:00.536Z,63.8
2019-04-19T02:01:02.949Z,64.3
2019-04-19T02:02:07.239Z,64.3
2019-04-19T02:03:06.191Z,63.8
2019-04-19T02:04:11.430Z,64.1
2019-04-19T02:05:11.607Z,64.4
2019-04-19T02:06:11.209Z,64.3
2019-04-19T02:07:12.537Z,64.5
2019-04-19T02:08:12.866Z,64.6
2019-04-19T02:09:11.515Z,64.5
2019-04-19T02:10:22.792Z,64.8
2019-04-19T02:11:27.941Z,64.9
2019-04-19T02:12:30.780Z,64.9
2019-04-19T02:13:24.770Z,65.4
2019-04-19T02:14:22.758Z,65.8
2019-04-19T02:15:33.073Z,65.5
2019-04-19T02:16:23.908Z,65.7
2019-04-19T02:17:23.110Z,65.6
2019-04-19T02:18:27.380Z,65.7
2019-04-19T02:19:28.062Z,65.9
2019-04-19T02:20:33.748Z,66.2
2019-04-19T02:21:33.254Z,66.0
2019-04-19T02:22:33.087Z,65.6
2019-04-19T02:23:34.027Z,65.6
2019-04-19T02:24:37.588Z,66.0
2019-04-19T02:25:35.295Z,66.3
2019-04-19T02:26:38.459Z,66.4
2019-04-19T02:27:40.735Z,67.5
2019-04-19T02:28:41.043Z,67.4
2019-04-19T02:29:43.758Z,67.6
2019-04-19T02:30:53.596Z,67.3
2019-04-19T02:32:07.241Z,67.5
2019-04-19T02:33:07.058Z,67.3
2019-04-19T02:34:17.846Z,67.3
2019-04-19T02:36:15.566Z,68.3
2019-04-19T02:37:16.411Z,68.5
2019-04-19T02:38:22.262Z,68.3
2019-04-19T02:39:24.105Z,68.5
2019-04-19T02:40:38.928Z,69.0
2019-04-19T02:41:26.248Z,69.1
2019-04-19T02:42:42.260Z,69.0
2019-04-19T02:43:45.935Z,69.1
2019-04-19T02:44:24.550Z,69.1
2019-04-19T02:45:22.241Z,69.1
2019-04-19T02:46:32.701Z,69.0
2019-04-19T02:48:37.894Z,69.0
2019-04-19T02:49:44.798Z,68.3
2019-04-19T02:51:02.018Z,68.9
2019-04-19T02:51:38.452Z,68.3
2019-04-19T02:53:39.199Z,68.6
2019-04-19T02:54:45.444Z,68.5
2019-04-19T02:55:50.164Z,68.0
2019-04-19T02:56:52.186Z,67.9
2019-04-19T02:58:55.638Z,67.7
2019-04-19T03:02:04.523Z,67.6
2019-04-19T03:02:52.914Z,67.1
2019-04-19T03:04:08.547Z,67.1
2019-04-19T03:05:03.570Z,67.6
2019-04-19T03:05:47.531Z,67.4
2019-04-19T03:06:41.598Z,67.8
2019-04-19T03:07:34.944Z,67.6
2019-04-19T03:08:37.482Z,68.3
2019-04-19T03:09:41.103Z,68.7
2019-04-19T03:10:53.500Z,68.9
2019-04-19T03:11:56.331Z,68.3
2019-04-19T03:13:09.587Z,68.7
2019-04-19T03:13:57.241Z,68.2
2019-04-19T03:15:01.780Z,68.6
2019-04-19T03:16:02.916Z,68.4
2019-04-19T03:17:14.060Z,68.8
2019-04-19T03:18:14.737Z,69.0
2019-04-19T03:20:11.922Z,69.0
2019-04-19T03:21:10.647Z,69.2
2019-04-19T03:22:16.356Z,69.3
2019-04-19T03:23:13.936Z,69.4
2019-04-19T03:24:15.379Z,69.5
2019-04-19T03:25:15.282Z,68.7
2019-04-19T03:26:20.711Z,69.3
2019-04-19T03:27:13.686Z,70.1
2019-04-19T03:28:17.238Z,69.0
2019-04-19T03:29:10.944Z,69.2
2019-04-19T03:30:25.198Z,69.0
2019-04-19T03:34:50.309Z,69.8
2019-04-19T03:35:41.052Z,70.1
2019-04-19T03:36:31.090Z,69.6
2019-04-19T03:37:39.707Z,69.9
2019-04-19T03:38:35.113Z,69.8
2019-04-19T03:40:39.038Z,70.0
2019-04-19T03:42:01.016Z,70.0
2019-04-19T03:42:44.741Z,70.4
2019-04-19T03:43:57.209Z,70.1
2019-04-19T03:44:40.217Z,70.1
2019-04-19T03:45:51.668Z,70.2
2019-04-19T03:49:08.667Z,70.4
2019-04-19T03:49:52.712Z,70.4
2019-04-19T03:51:00.364Z,70.4
2019-04-19T03:52:04.673Z,70.5
2019-04-19T03:52:58.686Z,70.4
2019-04-19T03:54:00.242Z,70.2
2019-04-19T03:54:56.077Z,70.1
2019-04-19T03:56:06.261Z,69.9
2019-04-19T03:57:00.357Z,69.7
2019-04-19T03:57:55.074Z,69.9
2019-04-19T03:58:51.296Z,70.4
2019-04-19T03:59:50.449Z,70.4
2019-04-19T04:00:52.018Z,70.4
2019-04-19T04:01:56.269Z,70.4
2019-04-19T04:02:54.719Z,70.4
2019-04-19T04:04:01.930Z,70.3
2019-04-19T04:05:02.730Z,70.4
2019-04-19T04:05:59.892Z,70.4
2019-04-19T04:07:07.198Z,70.5
2019-04-19T04:08:09.221Z,70.7
2019-04-19T04:09:06.221Z,71.2
2019-04-19T04:10:05.999Z,71.1
2019-04-19T04:11:12.594Z,70.6
2019-04-19T04:12:20.999Z,70.8
2019-04-19T04:13:22.572Z,71.0
2019-04-19T04:14:21.773Z,70.9
2019-04-19T04:15:23.925Z,70.8
2019-04-19T04:16:24.221Z,71.2
2019-04-19T04:17:14.941Z,71.2
2019-04-19T04:18:17.517Z,71.7
2019-04-19T04:19:18.542Z,71.5
2019-04-19T04:20:19.841Z,71.4
2019-04-19T04:21:27.305Z,71.1
2019-04-19T04:22:26.539Z,71.1
2019-04-19T04:23:29.925Z,71.3
2019-04-19T04:24:31.089Z,71.5
2019-04-19T04:25:30.150Z,71.7
2019-04-19T04:26:40.377Z,71.4
2019-04-19T04:27:41.388Z,71.7
2019-04-19T04:28:44.982Z,71.7
2019-04-19T04:29:39.128Z,71.6
2019-04-19T04:30:42.102Z,72.1
2019-04-19T04:31:45.764Z,71.8
2019-04-19T04:32:46.959Z,72.1
2019-04-19T04:33:49.562Z,72.1
2019-04-19T04:34:51.181Z,72.3
2019-04-19T04:35:53.221Z,72.2
2019-04-19T04:36:59.701Z,72.1
2019-04-19T04:37:54.424Z,72.2
2019-04-19T04:38:46.578Z,71.9
2019-04-19T04:39:47.229Z,72.0
2019-04-19T04:40:48.574Z,72.2
2019-04-19T04:41:50.146Z,72.2
2019-04-19T04:43:05.830Z,72.2
2019-04-19T04:44:10.296Z,72.0
2019-04-19T04:45:18.302Z,72.2
2019-04-19T04:46:32.717Z,72.4
2019-04-19T04:47:16.512Z,72.4
2019-04-19T04:48:16.564Z,72.1
2019-04-19T04:49:30.310Z,71.9
2019-04-19T04:50:28.981Z,72.0
2019-04-19T04:51:23.431Z,72.2
2019-04-19T04:52:14.116Z,72.0
2019-04-19T04:53:04.693Z,72.3
2019-04-19T04:54:06.153Z,72.4
2019-04-19T04:55:07.445Z,72.4
2019-04-19T04:56:10.212Z,72.2
2019-04-19T04:57:14.062Z,72.1
2019-04-19T04:58:20.074Z,72.5
2019-04-19T04:59:17.499Z,72.1
2019-04-19T05:00:15.863Z,72.2
2019-04-19T05:01:29.099Z,72.1
2019-04-19T05:02:37.876Z,71.6
2019-04-19T05:03:41.661Z,72.2
2019-04-19T05:04:34.786Z,72.0
2019-04-19T05:05:39.035Z,72.2
2019-04-19T05:06:44.925Z,72.2
2019-04-19T05:07:42.117Z,72.2
2019-04-19T05:08:45.133Z,72.2
2019-04-19T05:09:45.296Z,72.2
2019-04-19T05:10:43.504Z,72.3
2019-04-19T05:11:49.338Z,72.0
2019-04-19T05:13:04.461Z,71.9
2019-04-19T05:13:53.814Z,72.2
2019-04-19T05:14:50.031Z,72.4
2019-04-19T05:15:55.419Z,73.2
2019-04-19T05:17:04.027Z,73.3
2019-04-19T05:18:05.882Z,73.8
2019-04-19T05:18:53.786Z,74.0
2019-04-19T05:20:06.659Z,73.6
2019-04-19T05:20:58.205Z,74.2
2019-04-19T05:22:00.927Z,73.4
2019-04-19T05:23:04.480Z,73.6
2019-04-19T05:24:13.909Z,73.8
2019-04-19T05:25:28.875Z,74.0
2019-04-19T05:26:10.696Z,73.9
2019-04-19T05:27:17.669Z,73.5
2019-04-19T05:28:13.906Z,73.8
2019-04-19T05:29:09.576Z,74.1
2019-04-19T05:29:57.812Z,74.3
2019-04-19T05:31:02.278Z,73.8
2019-04-19T05:32:08.070Z,74.4
2019-04-19T05:33:09.960Z,73.8
2019-04-19T05:34:22.322Z,73.7
2019-04-19T05:35:16.721Z,74.4
2019-04-19T05:36:24.717Z,74.4
2019-04-19T05:37:21.266Z,74.0
2019-04-19T05:38:36.859Z,74.3
2019-04-19T05:39:31.557Z,73.5
2019-04-19T05:40:28.993Z,73.8
2019-04-19T05:41:28.742Z,73.4
2019-04-19T05:42:34.560Z,73.8
2019-04-19T05:43:51.461Z,74.0
2019-04-19T05:44:54.995Z,73.8
2019-04-19T05:45:42.769Z,73.8
2019-04-19T05:46:43.074Z,73.8
2019-04-19T05:47:33.634Z,73.4
2019-04-19T05:48:33.852Z,73.4
2019-04-19T05:49:43.919Z,73.0
2019-04-19T05:50:42.280Z,72.4
2019-04-19T05:51:49.651Z,72.3
2019-04-19T05:52:48.158Z,72.4
2019-04-19T05:53:36.866Z,72.1
2019-04-19T05:54:32.101Z,72.1
2019-04-19T05:55:36.821Z,72.3
2019-04-19T05:56:45.593Z,71.8
2019-04-19T05:57:54.077Z,71.2
2019-04-19T05:58:57.335Z,70.7
2019-04-19T05:59:55.391Z,70.3
2019-04-19T06:01:04.656Z,70.0
2019-04-19T06:02:05.424Z,70.1
2019-04-19T06:03:11.769Z,69.6
2019-04-19T06:04:21.341Z,69.2
2019-04-19T06:05:32.049Z,69.8
2019-04-19T06:06:32.367Z,69.1
2019-04-19T06:07:31.748Z,69.4
2019-04-19T06:08:25.200Z,69.3
2019-04-19T06:09:21.923Z,69.4
2019-04-19T06:10:31.422Z,69.9
2019-04-19T06:11:33.363Z,69.6
2019-04-19T06:12:36.921Z,70.0
2019-04-19T06:13:42.468Z,68.8
2019-04-19T06:15:05.218Z,69.0
2019-04-19T06:16:05.690Z,69.0
2019-04-19T06:16:58.078Z,69.0
2019-04-19T06:18:06.767Z,69.5
2019-04-19T06:19:15.195Z,69.5
2019-04-19T06:20:15.973Z,69.4
2019-04-19T06:21:29.164Z,69.2
2019-04-19T06:22:13.137Z,69.5
2019-04-19T06:23:31.000Z,69.0
2019-04-19T06:24:31.690Z,68.0
2019-04-19T06:25:46.473Z,66.2
2019-04-19T06:26:53.740Z,66.2
2019-04-19T06:28:02.724Z,66.0
2019-04-19T06:28:59.904Z,65.8
2019-04-19T06:29:58.873Z,65.5
2019-04-19T06:30:54.675Z,65.2
2019-04-19T06:32:20.763Z,65.2
2019-04-19T06:33:15.673Z,64.7
2019-04-19T06:34:17.676Z,65.3
2019-04-19T06:35:15.316Z,65.5
2019-04-19T06:36:18.959Z,65.6
2019-04-19T06:37:27.995Z,65.1
2019-04-19T06:38:33.041Z,65.4
2019-04-19T06:39:39.549Z,65.5
2019-04-19T06:40:52.338Z,65.0
2019-04-19T06:42:01.024Z,65.3
2019-04-19T06:43:09.773Z,64.5
2019-04-19T06:44:19.923Z,64.2
2019-04-19T06:45:39.169Z,63.9
2019-04-19T06:46:41.162Z,63.7
2019-04-19T06:47:46.497Z,63.8
2019-04-19T06:48:54.198Z,63.7
2019-04-19T06:49:58.918Z,64.1
2019-04-19T06:51:15.515Z,64.1
2019-04-19T06:52:17.707Z,64.0
2019-04-19T06:53:23.144Z,64.3
2019-04-19T06:54:36.762Z,63.9
2019-04-19T06:55:48.080Z,64.2
2019-04-19T06:56:59.136Z,63.9
2019-04-19T06:58:05.659Z,64.6
2019-04-19T06:59:15.803Z,63.8
2019-04-19T07:00:26.447Z,63.7
2019-04-19T07:01:33.373Z,64.3
2019-04-19T07:02:34.920Z,63.7
2019-04-19T07:03:41.346Z,63.9
2019-04-19T07:04:54.250Z,64.5
2019-04-19T07:06:09.481Z,64.8
2019-04-19T07:07:22.143Z,64.0
2019-04-19T07:08:52.344Z,64.2
2019-04-19T07:10:01.540Z,63.2
2019-04-19T07:10:50.276Z,63.0
2019-04-19T07:11:51.715Z,63.5
2019-04-19T07:12:59.196Z,63.5
2019-04-19T07:13:53.116Z,63.3
2019-04-19T07:15:12.354Z,63.5
2019-04-19T07:16:23.604Z,62.8
2019-04-19T07:17:20.343Z,62.7
2019-04-19T07:18:25.389Z,62.3
2019-04-19T07:19:36.935Z,62.0
2019-04-19T07:20:29.997Z,62.6
2019-04-19T07:21:46.882Z,61.8
2019-04-19T07:22:52.098Z,61.7
2019-04-19T07:24:03.942Z,60.6
2019-04-19T07:25:15.308Z,60.0
2019-04-19T07:26:16.992Z,60.0
2019-04-19T07:27:15.544Z,60.4
2019-04-19T07:28:14.677Z,59.2
2019-04-19T07:29:16.966Z,59.3
2019-04-19T07:30:22.585Z,59.6
2019-04-19T07:31:30.445Z,59.5
2019-04-19T07:32:40.790Z,59.8
2019-04-19T07:33:53.102Z,59.8
2019-04-19T07:34:58.305Z,59.7
2019-04-19T07:36:12.228Z,60.2
2019-04-19T07:37:14.363Z,60.2
2019-04-19T07:38:39.859Z,60.7
2019-04-19T07:39:30.484Z,60.8
2019-04-19T07:40:36.762Z,60.3
2019-04-19T07:41:43.881Z,60.2
2019-04-19T07:42:51.072Z,59.6
2019-04-19T07:43:51.225Z,60.5
2019-04-19T07:44:53.865Z,60.7
2019-04-19T07:46:08.388Z,60.6
2019-04-19T07:47:10.956Z,60.2
2019-04-19T07:48:11.201Z,60.1
2019-04-19T07:49:14.074Z,60.3
2019-04-19T07:50:24.375Z,60.1
2019-04-19T07:51:28.617Z,60.8
2019-04-19T07:52:37.810Z,60.4
2019-04-19T07:53:42.384Z,60.7
2019-04-19T07:54:45.857Z,60.0
2019-04-19T07:56:00.323Z,60.1
2019-04-19T07:57:17.135Z,60.2
2019-04-19T07:59:34.517Z,60.8
2019-04-19T08:01:54.511Z,60.7
2019-04-19T08:02:54.876Z,60.8
2019-04-19T08:04:10.404Z,60.3
2019-04-19T08:06:18.443Z,60.6
2019-04-19T08:09:39.554Z,60.8
2019-04-19T08:11:26.679Z,59.3
2019-04-19T08:12:01.531Z,59.3
2019-04-19T08:12:55.066Z,59.3
2019-04-19T08:15:17.362Z,58.8
2019-04-19T08:16:14.216Z,57.7
2019-04-19T08:17:41.577Z,56.5
2019-04-19T08:28:18.109Z,56.6
2019-04-19T08:29:28.966Z,56.2
2019-04-19T08:30:32.284Z,55.6
2019-04-19T08:31:29.850Z,55.9
2019-04-19T08:32:38.515Z,56.7
2019-04-19T08:33:44.654Z,56.8
2019-04-19T08:34:54.942Z,56.5
2019-04-19T08:36:00.871Z,56.1
2019-04-19T08:37:13.294Z,56.7
2019-04-19T08:38:19.228Z,56.8
2019-04-19T08:39:38.592Z,55.9
2019-04-19T08:40:43.836Z,55.7
2019-04-19T08:41:51.886Z,55.4
2019-04-19T08:42:54.128Z,55.6
2019-04-19T08:43:59.329Z,55.3
2019-04-19T08:44:59.178Z,54.4
2019-04-19T08:45:59.205Z,55.0
2019-04-19T08:47:16.755Z,54.2
2019-04-19T08:48:16.885Z,54.1
2019-04-19T08:49:27.050Z,54.0
2019-04-19T08:50:28.603Z,53.9
2019-04-19T08:51:38.565Z,53.6
2019-04-19T08:52:50.025Z,54.2
2019-04-19T08:53:57.049Z,54.0
2019-04-19T08:55:14.067Z,53.6
2019-04-19T08:56:13.715Z,53.5
2019-04-19T08:57:13.578Z,53.0
2019-04-19T08:58:33.337Z,52.4
2019-04-19T08:59:45.068Z,52.6
2019-04-19T09:00:58.089Z,53.7
2019-04-19T09:02:59.460Z,53.0
2019-04-19T09:04:12.199Z,52.7
2019-04-19T09:05:16.951Z,53.2
2019-04-19T09:07:17.066Z,53.7
2019-04-19T09:08:38.476Z,54.0
2019-04-19T09:10:00.057Z,54.3
2019-04-19T09:10:53.525Z,53.1
2019-04-19T09:12:01.545Z,53.0
2019-04-19T09:13:20.809Z,53.7
2019-04-19T09:14:16.234Z,53.5
2019-04-19T09:15:20.649Z,53.2
2019-04-19T09:16:24.610Z,52.3
2019-04-19T09:17:58.115Z,50.4
2019-04-19T09:18:50.656Z,50.0
2019-04-19T09:21:00.730Z,47.2
2019-04-19T09:22:07.719Z,46.4
2019-04-19T09:23:12.826Z,46.3
2019-04-19T09:24:27.723Z,46.2
2019-04-19T09:25:32.567Z,44.5
2019-04-19T09:26:44.776Z,45.8
2019-04-19T09:27:54.742Z,44.6
2019-04-19T09:29:14.282Z,43.8
2019-04-19T09:30:24.181Z,43.2
2019-04-19T09:31:31.896Z,43.5
2019-04-19T09:32:35.962Z,42.7
2019-04-19T09:33:48.661Z,42.6
2019-04-19T09:35:03.780Z,42.9
2019-04-19T09:36:17.343Z,41.8
2019-04-19T09:37:40.023Z,41.7
2019-04-19T09:38:47.224Z,41.8
2019-04-19T09:39:57.551Z,43.1
2019-04-19T09:41:13.397Z,42.3
2019-04-19T09:42:21.740Z,40.8
2019-04-19T09:43:48.148Z,39.9
2019-04-19T09:44:54.163Z,39.5
2019-04-19T09:46:04.054Z,39.5
2019-04-19T09:47:16.456Z,40.3
2019-04-19T09:48:36.551Z,39.9
2019-04-19T09:49:47.875Z,39.5
2019-04-19T09:50:54.983Z,39.5
2019-04-19T09:52:05.835Z,37.8
2019-04-19T09:53:30.780Z,38.1
2019-04-19T09:54:43.466Z,39.0
2019-04-19T09:55:49.830Z,39.5
2019-04-19T09:57:00.044Z,39.3
2019-04-19T09:58:17.186Z,38.2
2019-04-19T09:59:24.220Z,39.2
2019-04-19T10:00:32.034Z,39.9
2019-04-19T10:01:49.880Z,38.5
2019-04-19T10:03:01.440Z,37.8
2019-04-19T10:04:11.145Z,38.2
2019-04-19T10:05:28.773Z,37.4
2019-04-19T10:06:43.341Z,36.8
2019-04-19T10:07:57.069Z,36.7
2019-04-19T10:09:13.799Z,36.4
2019-04-19T10:10:22.981Z,35.3
2019-04-19T10:11:36.926Z,37.2
2019-04-19T10:12:51.820Z,36.4
2019-04-19T10:14:08.508Z,35.3
2019-04-19T10:15:18.173Z,35.9
2019-04-19T10:16:30.511Z,36.3
2019-04-19T10:17:44.648Z,35.5
2019-04-19T10:19:05.771Z,35.8
2019-04-19T10:20:12.978Z,36.4
2019-04-19T10:21:27.569Z,37.0
2019-04-19T10:22:37.261Z,36.2
2019-04-19T10:23:54.010Z,36.0
2019-04-19T10:25:07.184Z,35.5
2019-04-19T10:26:24.263Z,35.2
2019-04-19T10:27:39.555Z,35.3
2019-04-19T10:28:50.616Z,35.0
2019-04-19T10:30:04.348Z,34.9
2019-04-19T10:31:31.422Z,35.5
2019-04-19T10:32:54.265Z,36.2
2019-04-19T10:34:10.098Z,35.7
2019-04-19T10:35:27.385Z,36.2
2019-04-19T10:36:48.642Z,35.0
2019-04-19T10:38:01.846Z,34.3
2019-04-19T10:39:23.813Z,34.0
2019-04-19T10:40:44.377Z,33.8
2019-04-19T10:42:01.922Z,33.6
2019-04-19T10:43:19.511Z,33.7
2019-04-19T10:44:34.341Z,34.3
2019-04-19T10:46:00.547Z,34.4
2019-04-19T10:47:22.887Z,33.8
2019-04-19T10:48:41.592Z,33.8
2019-04-19T10:50:11.942Z,32.9
2019-04-19T10:51:21.569Z,33.7
2019-04-19T10:52:41.762Z,33.3
2019-04-19T10:54:00.012Z,32.9
2019-04-19T10:55:18.176Z,33.9
2019-04-19T10:56:40.652Z,33.6
2019-04-19T10:58:03.308Z,33.9
2019-04-19T10:59:22.595Z,33.3
2019-04-19T11:00:43.080Z,33.2
2019-04-19T11:02:06.251Z,32.0
2019-04-19T11:03:26.559Z,33.2
2019-04-19T11:04:48.794Z,32.9
2019-04-19T11:06:08.984Z,32.2
2019-04-19T11:07:27.543Z,32.0
2019-04-19T11:08:54.098Z,33.5
2019-04-19T11:10:17.925Z,33.8
2019-04-19T11:11:45.526Z,33.4
2019-04-19T11:13:06.439Z,33.2
2019-04-19T11:14:30.170Z,33.2
2019-04-19T11:15:52.039Z,32.7
2019-04-19T11:17:13.865Z,32.8
2019-04-19T11:18:41.567Z,32.4
2019-04-19T11:20:17.929Z,31.4
2019-04-19T11:21:31.710Z,31.7
2019-04-19T11:22:53.476Z,31.4
2019-04-19T11:24:20.013Z,32.6
2019-04-19T11:25:52.057Z,33.4
2019-04-19T11:27:17.631Z,32.5
2019-04-19T11:28:45.167Z,32.1
2019-04-19T11:30:03.693Z,33.7
2019-04-19T11:31:33.925Z,34.5
2019-04-19T11:33:07.069Z,32.1
2019-04-19T11:34:33.735Z,32.4
2019-04-19T11:35:57.341Z,32.0
2019-04-19T11:37:18.411Z,31.7
2019-04-19T11:38:40.813Z,31.2
2019-04-19T11:40:06.934Z,30.4
2019-04-19T11:41:27.700Z,30.8
2019-04-19T11:42:48.962Z,30.5
2019-04-19T11:44:17.428Z,30.6
2019-04-19T11:45:35.720Z,30.4
2019-04-19T11:47:03.397Z,30.6
2019-04-19T11:48:22.743Z,31.2
2019-04-19T11:49:47.344Z,31.8
2019-04-19T11:51:09.566Z,33.2
2019-04-19T11:52:34.146Z,30.6
2019-04-19T11:53:58.624Z,29.8
2019-04-19T11:55:28.607Z,29.0
2019-04-19T11:56:54.076Z,28.5
2019-04-19T11:58:12.515Z,28.7
2019-04-19T11:59:39.146Z,30.5
2019-04-19T12:00:56.118Z,30.6
2019-04-19T12:02:22.065Z,30.5
2019-04-19T12:03:47.911Z,28.2
2019-04-19T12:05:16.440Z,28.5
2019-04-19T12:06:38.466Z,28.9
2019-04-19T12:08:02.357Z,29.5
2019-04-19T12:09:30.290Z,28.7
2019-04-19T12:11:04.220Z,28.1
2019-04-19T12:12:39.111Z,28.1
2019-04-19T12:14:12.282Z,28.8
2019-04-19T12:15:48.435Z,26.6
2019-04-19T12:17:27.400Z,26.3
2019-04-19T12:19:04.348Z,28.0
2019-04-19T12:20:35.926Z,27.9
2019-04-19T12:22:07.243Z,27.8
2019-04-19T12:23:41.485Z,27.1
2019-04-19T12:25:13.491Z,28.8
2019-04-19T12:26:45.170Z,28.2
2019-04-19T12:28:15.459Z,28.0
2019-04-19T12:29:48.089Z,27.5
2019-04-19T12:31:17.221Z,26.8
2019-04-19T12:32:43.495Z,27.2
2019-04-19T12:34:10.084Z,27.6
2019-04-19T12:35:41.239Z,27.7
2019-04-19T12:37:15.193Z,27.1
2019-04-19T12:38:44.094Z,26.8
2019-04-19T12:40:08.653Z,29.9
2019-04-19T12:41:30.496Z,30.0
2019-04-19T12:42:51.990Z,28.4
2019-04-19T12:44:13.287Z,29.4
2019-04-19T12:45:30.150Z,28.8
2019-04-19T12:46:48.657Z,29.2
2019-04-19T12:48:03.361Z,28.6
2019-04-19T12:49:20.518Z,28.6
2019-04-19T12:50:37.298Z,28.0
2019-04-19T12:51:50.193Z,28.2
2019-04-19T12:53:06.307Z,27.1
2019-04-19T12:54:18.240Z,28.5
2019-04-19T12:55:32.241Z,29.1
2019-04-19T12:56:47.552Z,28.1
2019-04-19T12:57:59.397Z,27.1
2019-04-19T12:59:13.854Z,27.2
2019-04-19T13:00:26.348Z,27.6
2019-04-19T13:01:37.604Z,27.3
2019-04-19T13:02:49.931Z,28.0
2019-04-19T13:04:04.221Z,26.3
2019-04-19T13:05:18.302Z,27.2
2019-04-19T13:06:31.585Z,27.7
2019-04-19T13:07:41.335Z,27.2
2019-04-19T13:08:52.933Z,26.8
2019-04-19T13:10:09.047Z,27.5
2019-04-19T13:11:20.991Z,27.4
2019-04-19T13:12:31.342Z,28.9
2019-04-19T13:13:43.717Z,28.0
2019-04-19T13:14:51.306Z,27.1
2019-04-19T13:16:06.158Z,26.4
2019-04-19T13:17:16.049Z,26.9
2019-04-19T13:18:24.463Z,27.0
2019-04-19T13:19:33.431Z,26.3
2019-04-19T13:20:43.960Z,27.2
2019-04-19T13:21:58.538Z,27.2
2019-04-19T13:23:08.440Z,28.3
2019-04-19T13:24:20.347Z,28.0
2019-04-19T13:25:29.223Z,29.0
2019-04-19T13:26:41.196Z,27.8
2019-04-19T13:27:54.390Z,27.3
2019-04-19T13:29:07.240Z,27.2
2019-04-19T13:30:23.828Z,27.2
2019-04-19T13:31:34.603Z,27.3
2019-04-19T13:32:47.476Z,27.0
2019-04-19T13:34:05.108Z,26.9
2019-04-19T13:35:25.173Z,26.9
2019-04-19T13:36:37.798Z,26.3
2019-04-19T13:37:52.007Z,27.4
2019-04-19T13:39:06.790Z,26.6
2019-04-19T13:40:22.141Z,27.3
2019-04-19T13:41:36.861Z,27.3
2019-04-19T13:42:53.757Z,25.5
2019-04-19T13:44:08.962Z,26.2
2019-04-19T13:45:29.085Z,25.4
2019-04-19T13:46:37.028Z,25.7
2019-04-19T13:47:48.904Z,24.6
2019-04-19T13:49:00.805Z,25.7
2019-04-19T13:50:17.413Z,24.1
2019-04-19T13:51:24.709Z,24.6
2019-04-19T13:52:39.217Z,21.7
2019-04-19T13:53:48.841Z,20.6
2019-04-19T13:54:56.834Z,21.3
2019-04-19T13:56:06.581Z,20.5
2019-04-19T13:57:15.591Z,21.3
2019-04-19T13:58:22.645Z,19.5
2019-04-19T13:59:35.513Z,19.4
2019-04-19T14:00:36.218Z,19.8
2019-04-19T14:01:42.934Z,17.7
2019-04-19T14:02:51.634Z,17.4
2019-04-19T14:03:59.723Z,16.4
2019-04-19T14:05:09.417Z,15.5
2019-04-19T14:06:18.167Z,16.9
2019-04-19T14:07:25.311Z,15.4
2019-04-19T14:08:34.079Z,15.7
2019-04-19T14:09:39.167Z,14.5
2019-04-19T14:10:46.152Z,14.8
2019-04-19T14:11:51.618Z,14.0
2019-04-19T14:12:57.115Z,15.4
2019-04-19T14:14:04.809Z,14.9
2019-04-19T14:15:09.215Z,14.7
2019-04-19T14:16:15.141Z,14.8
2019-04-19T14:17:21.958Z,14.8
2019-04-19T14:18:28.696Z,15.2
2019-04-19T14:19:34.425Z,14.8
2019-04-19T14:20:42.507Z,15.4
2019-04-19T14:21:45.119Z,16.9
2019-04-19T14:22:57.266Z,14.9
2019-04-19T14:24:01.710Z,15.5
2019-04-19T14:25:09.540Z,16.3
2019-04-19T14:26:29.454Z,15.9
2019-04-19T14:27:29.398Z,16.2
2019-04-19T14:28:36.744Z,16.8
2019-04-19T14:29:43.522Z,17.6
2019-04-19T14:30:49.265Z,16.8
2019-04-19T14:31:55.124Z,16.9
2019-04-19T14:33:04.223Z,17.6
2019-04-19T14:34:11.065Z,18.8
2019-04-19T14:35:17.304Z,18.5
2019-04-19T14:36:21.955Z,17.8
2019-04-19T14:37:25.871Z,18.3
2019-04-19T14:38:32.088Z,18.5
2019-04-19T14:39:38.467Z,19.7
2019-04-19T14:40:47.639Z,20.1
2019-04-19T14:41:51.718Z,20.0
2019-04-19T14:42:56.234Z,19.8
2019-04-19T14:44:04.702Z,19.8
2019-04-19T14:45:12.114Z,19.7
2019-04-19T14:46:20.586Z,20.4
2019-04-19T14:47:28.682Z,19.9
2019-04-19T14:48:40.012Z,19.6
2019-04-19T14:49:47.028Z,20.2
2019-04-19T14:50:55.726Z,19.7
2019-04-19T14:52:00.943Z,20.4
2019-04-19T14:53:07.954Z,20.3
2019-04-19T14:54:14.669Z,20.5
2019-04-19T14:55:21.068Z,20.4
2019-04-19T14:56:28.108Z,19.8
2019-04-19T14:57:32.474Z,19.9
2019-04-19T14:58:36.248Z,20.5
2019-04-19T14:59:43.050Z,20.3
2019-04-19T15:00:51.210Z,19.5
2019-04-19T15:01:57.112Z,20.0
2019-04-19T15:03:04.990Z,19.4
2019-04-19T15:04:13.126Z,20.5
2019-04-19T15:05:23.440Z,20.9
2019-04-19T15:06:31.376Z,20.1
2019-04-19T15:07:40.841Z,21.1
2019-04-19T15:08:47.584Z,23.3
2019-04-19T15:09:55.772Z,20.8
2019-04-19T15:11:07.500Z,21.3
2019-04-19T15:12:20.715Z,20.2
2019-04-19T15:13:31.054Z,20.5
2019-04-19T15:14:45.042Z,21.4
2019-04-19T15:16:01.985Z,21.7
2019-04-19T15:17:16.572Z,21.4
2019-04-19T15:18:31.958Z,21.1
2019-04-19T15:19:52.796Z,20.9
2019-04-19T15:21:14.195Z,20.5
2019-04-19T15:22:30.454Z,21.3
2019-04-19T15:23:44.782Z,21.4
2019-04-19T15:25:03.017Z,20.5
2019-04-19T15:26:18.935Z,20.5
2019-04-19T15:27:39.311Z,21.4
2019-04-19T15:28:56.372Z,21.3
2019-04-19T15:30:18.942Z,20.4
2019-04-19T15:31:30.229Z,20.5
2019-04-19T15:32:38.580Z,20.6
2019-04-19T15:33:50.307Z,21.1
2019-04-19T15:35:01.303Z,20.2